createdAt,value
2023-01-13T00:01:54.784Z,13.55
2023-01-13T00:06:56.899Z,10.95
2023-01-13T00:11:59.047Z,11.07
2023-01-13T00:17:01.463Z,10.77
2023-01-13T00:22:03.848Z,11.95
2023-01-13T00:27:06.144Z,14.18
2023-01-13T00:32:08.413Z,16.02
2023-01-13T00:37:13.128Z,15.65
2023-01-13T00:42:33.615Z,13.82
2023-01-13T00:47:35.819Z,10.98
2023-01-13T00:52:37.988Z,18.55
2023-01-13T00:57:40.160Z,21.60
2023-01-13T01:02:42.375Z,19.25
2023-01-13T01:07:44.432Z,9.77
2023-01-13T01:12:46.467Z,16.30
2023-01-13T01:17:48.546Z,18.35
2023-01-13T01:22:50.599Z,18.40
2023-01-13T01:27:53.773Z,16.58
2023-01-13T01:32:57.324Z,24.05
2023-01-13T01:37:59.462Z,28.73
2023-01-13T01:43:20.270Z,17.20
2023-01-13T01:48:22.323Z,18.48
2023-01-13T01:53:26.222Z,16.55
2023-01-13T01:58:45.586Z,12.77
2023-01-13T02:03:56.453Z,12.52
2023-01-13T02:08:59.769Z,8.75
2023-01-13T02:14:01.983Z,12.18
2023-01-13T02:19:56.715Z,9.48
2023-01-13T02:25:24.342Z,9.63
2023-01-13T02:31:06.518Z,11.13
2023-01-13T02:36:37.693Z,8.13
2023-01-13T02:42:10.546Z,10.77
2023-01-13T02:47:22.692Z,13.65
2023-01-13T02:52:37.250Z,14.68
2023-01-13T02:57:41.049Z,9.02
2023-01-13T03:02:43.341Z,9.20
2023-01-13T03:07:53.548Z,11.40
2023-01-13T03:12:56.513Z,9.32
2023-01-13T03:18:06.016Z,9.43
2023-01-13T03:23:17.538Z,11.18
2023-01-13T03:28:36.892Z,11.02
2023-01-13T03:33:55.284Z,10.90
2023-01-13T03:39:03.065Z,8.68
2023-01-13T03:44:22.217Z,19.83
2023-01-13T03:49:46.553Z,16.15
2023-01-13T03:54:54.794Z,14.48
2023-01-13T04:00:00.049Z,13.77
2023-01-13T04:05:05.062Z,7.30
2023-01-13T04:10:10.345Z,12.07
2023-01-13T04:15:13.092Z,15.65
2023-01-13T04:20:15.617Z,15.55
2023-01-13T04:25:17.885Z,12.15
2023-01-13T04:30:20.009Z,12.70
2023-01-13T04:35:22.170Z,9.68
2023-01-13T04:40:24.242Z,12.15
2023-01-13T04:45:26.411Z,10.93
2023-01-13T04:50:28.998Z,19.98
2023-01-13T04:55:32.052Z,13.77
2023-01-13T05:00:34.874Z,15.90
2023-01-13T05:05:38.046Z,13.30
2023-01-13T05:10:40.262Z,12.73
2023-01-13T05:16:01.857Z,10.75
2023-01-13T05:21:04.143Z,12.00
2023-01-13T05:26:06.511Z,16.88
2023-01-13T05:31:08.670Z,11.38
2023-01-13T05:36:10.819Z,8.65
2023-01-13T05:41:31.641Z,8.05
2023-01-13T05:46:33.798Z,14.00
2023-01-13T05:51:35.963Z,8.60
2023-01-13T05:56:38.114Z,15.43
2023-01-13T06:01:40.264Z,26.05
2023-01-13T06:06:43.526Z,19.92
2023-01-13T06:11:46.479Z,12.35
2023-01-13T06:16:48.664Z,12.82
2023-01-13T06:21:50.806Z,13.80
2023-01-13T06:26:53.148Z,14.95
2023-01-13T06:31:56.399Z,15.27
2023-01-13T06:36:58.545Z,10.80
2023-01-13T06:42:19.263Z,9.35
2023-01-13T06:47:22.495Z,16.40
2023-01-13T06:52:24.646Z,12.35
2023-01-13T06:57:26.732Z,10.95
2023-01-13T07:02:28.888Z,13.93
2023-01-13T07:07:32.689Z,11.77
2023-01-13T07:12:54.712Z,12.70
2023-01-13T07:18:00.196Z,15.50
2023-01-13T07:23:02.270Z,17.85
2023-01-13T07:28:04.620Z,11.35
2023-01-13T07:33:06.706Z,12.35
2023-01-13T07:38:08.838Z,18.48
2023-01-13T07:43:31.627Z,19.40
2023-01-13T07:48:35.268Z,15.30
2023-01-13T07:53:39.111Z,21.13
2023-01-13T07:58:41.251Z,11.77
2023-01-13T08:03:43.907Z,16.83
2023-01-13T08:08:46.166Z,12.40
2023-01-13T08:13:48.341Z,14.73
2023-01-13T08:18:50.429Z,9.48
2023-01-13T08:23:52.514Z,11.52
2023-01-13T08:28:54.681Z,8.25
2023-01-13T08:33:56.812Z,16.10
2023-01-13T08:38:58.957Z,11.63
2023-01-13T08:44:01.060Z,12.40
2023-01-13T08:49:03.562Z,12.00
2023-01-13T08:54:05.923Z,10.32
2023-01-13T08:59:17.504Z,16.23
2023-01-13T09:04:24.141Z,14.57
2023-01-13T09:09:27.802Z,15.38
2023-01-13T09:14:33.971Z,13.23
2023-01-13T09:19:36.637Z,14.95
2023-01-13T09:24:38.801Z,21.38
2023-01-13T09:29:41.477Z,16.08
2023-01-13T09:35:01.577Z,18.33
2023-01-13T09:40:19.317Z,18.38
2023-01-13T09:45:25.706Z,27.45
2023-01-13T09:50:39.906Z,27.95
2023-01-13T09:55:43.631Z,21.38
2023-01-13T10:01:04.496Z,20.98
2023-01-13T10:06:21.193Z,31.52
2023-01-13T10:11:48.114Z,15.73
2023-01-13T10:16:50.219Z,16.50
2023-01-13T10:22:18.823Z,21.63
2023-01-13T10:27:40.804Z,19.85
2023-01-13T10:32:46.573Z,21.25
2023-01-13T10:37:57.654Z,17.60
2023-01-13T10:43:06.741Z,21.80
2023-01-13T10:48:15.008Z,26.35
2023-01-13T10:53:24.080Z,19.30
2023-01-13T10:58:26.608Z,17.40
2023-01-13T11:03:41.720Z,22.52
2023-01-13T11:08:47.386Z,20.55
2023-01-13T11:14:09.980Z,20.90
2023-01-13T11:19:18.350Z,17.00
2023-01-13T11:24:41.985Z,16.98
2023-01-13T11:30:22.775Z,16.08
2023-01-13T11:35:25.267Z,23.40
2023-01-13T11:40:40.544Z,15.68
2023-01-13T11:45:45.491Z,16.53
2023-01-13T11:51:02.843Z,13.33
2023-01-13T11:56:33.770Z,17.48
2023-01-13T12:02:00.459Z,27.00
2023-01-13T12:07:12.747Z,20.50
2023-01-13T12:12:34.107Z,29.33
2023-01-13T12:17:54.430Z,23.38
2023-01-13T12:23:01.238Z,19.20
2023-01-13T12:28:28.694Z,24.77
2023-01-13T12:33:45.686Z,21.38
2023-01-13T12:39:19.819Z,22.33
2023-01-13T12:44:21.897Z,17.98
2023-01-13T12:49:27.237Z,22.40
2023-01-13T12:54:41.066Z,24.42
2023-01-13T13:00:05.881Z,23.42
2023-01-13T13:05:13.950Z,16.63
2023-01-13T13:10:28.863Z,20.15
2023-01-13T13:15:34.140Z,21.27
2023-01-13T13:20:58.937Z,20.25
2023-01-13T13:26:22.118Z,20.27
2023-01-13T13:31:44.315Z,17.73
2023-01-13T13:37:02.708Z,20.50
2023-01-13T13:42:36.221Z,20.50
2023-01-13T13:47:38.993Z,16.50
2023-01-13T13:52:51.829Z,17.70
2023-01-13T13:57:55.970Z,19.35
2023-01-13T14:03:01.616Z,17.63
2023-01-13T14:08:14.244Z,11.57
2023-01-13T14:13:27.617Z,15.27
2023-01-13T14:18:32.967Z,22.05
2023-01-13T14:23:35.097Z,15.35
2023-01-13T14:28:38.664Z,10.68
2023-01-13T14:33:46.038Z,14.82
2023-01-13T14:39:05.759Z,16.77
2023-01-13T14:44:27.946Z,13.63
2023-01-13T14:49:40.409Z,13.98
2023-01-13T14:54:51.210Z,13.18
2023-01-13T14:59:57.442Z,15.38
2023-01-13T15:05:24.952Z,16.35
2023-01-13T15:10:33.708Z,13.25
2023-01-13T15:15:38.458Z,8.05
2023-01-13T15:20:41.882Z,10.55
2023-01-13T15:25:45.268Z,12.50
2023-01-13T15:30:48.996Z,10.63
2023-01-13T15:35:52.885Z,12.07
2023-01-13T15:40:55.187Z,13.30
2023-01-13T15:46:16.052Z,12.05
2023-01-13T15:51:19.354Z,12.82
2023-01-13T15:56:26.662Z,13.15
2023-01-13T16:01:28.808Z,9.88
2023-01-13T16:06:36.208Z,16.48
2023-01-13T16:11:38.302Z,13.13
2023-01-13T16:16:40.898Z,12.60
2023-01-13T16:21:43.059Z,11.10
2023-01-13T16:26:45.244Z,11.68
2023-01-13T16:31:47.440Z,9.55
2023-01-13T16:36:50.291Z,11.23
2023-01-13T16:41:52.463Z,13.63
2023-01-13T16:46:54.511Z,10.02
2023-01-13T16:51:56.625Z,9.98
2023-01-13T16:56:58.815Z,5.80
2023-01-13T17:02:02.156Z,5.93
2023-01-13T17:07:08.191Z,6.10
2023-01-13T17:17:24.818Z,6.68
2023-01-13T17:22:26.946Z,12.55
2023-01-13T17:27:29.072Z,8.88
2023-01-13T17:32:31.271Z,7.05
2023-01-13T17:37:33.803Z,3.40
2023-01-13T17:42:37.425Z,3.70
2023-01-13T17:47:39.620Z,4.90
2023-01-13T17:52:41.752Z,4.68
2023-01-13T17:57:43.957Z,6.00
2023-01-13T18:02:46.245Z,6.85
2023-01-13T18:07:48.368Z,7.68
2023-01-13T18:12:50.478Z,6.07
2023-01-13T18:17:52.538Z,4.68
2023-01-13T18:23:13.458Z,8.50
2023-01-13T18:28:15.583Z,9.63
2023-01-13T18:33:17.615Z,6.25
2023-01-13T18:38:28.617Z,7.28
2023-01-13T18:43:33.190Z,5.30
2023-01-13T18:48:35.225Z,10.48
2023-01-13T18:53:37.351Z,9.35
2023-01-13T18:58:50.343Z,5.45
2023-01-13T19:04:05.063Z,7.53
2023-01-13T19:09:11.166Z,10.75
2023-01-13T19:14:34.011Z,8.43
2023-01-13T19:19:44.938Z,10.35
2023-01-13T19:24:47.082Z,5.85
2023-01-13T19:29:52.137Z,7.47
2023-01-13T19:34:59.110Z,7.50
2023-01-13T19:40:01.393Z,7.22
2023-01-13T19:45:21.970Z,5.25
2023-01-13T19:50:24.817Z,3.75
2023-01-13T19:55:28.084Z,4.65
2023-01-13T20:00:30.307Z,8.88
2023-01-13T20:05:32.504Z,4.82
2023-01-13T20:10:34.824Z,2.78
2023-01-13T20:15:38.900Z,2.88
2023-01-13T20:20:41.038Z,2.03
2023-01-13T20:25:43.264Z,5.50
2023-01-13T20:30:45.387Z,11.23
2023-01-13T20:35:57.218Z,4.35
2023-01-13T20:41:23.808Z,5.93
2023-01-13T20:46:25.994Z,6.43
2023-01-13T20:51:28.047Z,7.22
2023-01-13T20:56:30.427Z,5.57
2023-01-13T21:01:32.888Z,5.45
2023-01-13T21:06:35.526Z,5.32
2023-01-13T21:11:56.205Z,3.75
2023-01-13T21:16:58.246Z,4.05
2023-01-13T21:22:00.392Z,5.07
2023-01-13T21:27:02.516Z,4.45
2023-01-13T21:32:04.809Z,3.83
2023-01-13T21:37:07.096Z,3.10
2023-01-13T21:42:35.499Z,6.25
2023-01-13T21:47:49.885Z,4.18
2023-01-13T21:52:52.808Z,2.75
2023-01-13T21:58:11.740Z,3.65
2023-01-13T22:03:18.654Z,4.43
2023-01-13T22:08:20.761Z,3.53
2023-01-13T22:13:41.788Z,2.33
2023-01-13T22:18:43.972Z,3.85
2023-01-13T22:23:46.124Z,4.45
2023-01-13T22:28:48.181Z,4.50
2023-01-13T22:33:56.309Z,4.07
2023-01-13T22:39:00.516Z,3.13
2023-01-13T22:44:02.830Z,3.03
2023-01-13T22:49:04.962Z,4.90
2023-01-13T22:54:07.558Z,3.83
2023-01-13T22:59:12.546Z,8.13
2023-01-13T23:04:14.745Z,5.72
2023-01-13T23:09:16.946Z,6.03
2023-01-13T23:14:19.238Z,8.45
2023-01-13T23:19:23.785Z,7.43
2023-01-13T23:24:27.926Z,5.97
2023-01-13T23:29:30.340Z,12.02
2023-01-13T23:34:32.535Z,6.05
2023-01-13T23:39:34.657Z,16.52
2023-01-13T23:44:36.758Z,11.63
2023-01-13T23:49:39.017Z,10.55
2023-01-13T23:54:41.118Z,10.63
2023-01-13T23:59:43.623Z,14.45
